sensor_id;sensor_type;location;lat;lon;timestamp;pressure;altitude;pressure_sealevel;temperature
67599;BMP280;62026;39.230;9.122;2023-05-10T00:01:48;100959.91;;;19.40
67599;BMP280;62026;39.230;9.122;2023-05-10T00:04:14;100957.53;;;19.38
67599;BMP280;62026;39.230;9.122;2023-05-10T00:06:40;100948.13;;;19.35
67599;BMP280;62026;39.230;9.122;2023-05-10T00:09:06;100945.19;;;19.37
67599;BMP280;62026;39.230;9.122;2023-05-10T00:11:32;100941.72;;;19.36
67599;BMP280;62026;39.230;9.122;2023-05-10T00:13:58;100934.19;;;19.33
67599;BMP280;62026;39.230;9.122;2023-05-10T00:16:24;100937.94;;;19.32
67599;BMP280;62026;39.230;9.122;2023-05-10T00:18:50;100934.19;;;19.33
67599;BMP280;62026;39.230;9.122;2023-05-10T00:21:16;100930.97;;;19.31
67599;BMP280;62026;39.230;9.122;2023-05-10T00:23:42;100926.69;;;19.30
67599;BMP280;62026;39.230;9.122;2023-05-10T00:26:07;100930.97;;;19.31
67599;BMP280;62026;39.230;9.122;2023-05-10T00:28:33;100924.81;;;19.31
67599;BMP280;62026;39.230;9.122;2023-05-10T00:30:59;100922.94;;;19.31
67599;BMP280;62026;39.230;9.122;2023-05-10T00:33:25;100916.28;;;19.29
67599;BMP280;62026;39.230;9.122;2023-05-10T00:35:51;100918.66;;;19.30
67599;BMP280;62026;39.230;9.122;2023-05-10T00:38:18;100914.38;;;19.24
67599;BMP280;62026;39.230;9.122;2023-05-10T00:40:44;100906.59;;;19.23
67599;BMP280;62026;39.230;9.122;2023-05-10T00:43:17;100912.75;;;19.23
67599;BMP280;62026;39.230;9.122;2023-05-10T00:45:44;100912.75;;;19.23
67599;BMP280;62026;39.230;9.122;2023-05-10T00:48:11;100910.09;;;19.23
67599;BMP280;62026;39.230;9.122;2023-05-10T00:50:37;100905.28;;;19.20
67599;BMP280;62026;39.230;9.122;2023-05-10T00:53:06;100896.72;;;19.23
67599;BMP280;62026;39.230;9.122;2023-05-10T00:55:32;100892.94;;;19.19
67599;BMP280;62026;39.230;9.122;2023-05-10T00:57:58;100894.81;;;19.19
67599;BMP280;62026;39.230;9.122;2023-05-10T01:00:24;100897.75;;;19.17
67599;BMP280;62026;39.230;9.122;2023-05-10T01:02:53;100888.91;;;19.17
67599;BMP280;62026;39.230;9.122;2023-05-10T01:05:19;100877.44;;;19.16
67599;BMP280;62026;39.230;9.122;2023-05-10T01:07:46;100886.22;;;19.17
67599;BMP280;62026;39.230;9.122;2023-05-10T01:10:12;100886.53;;;19.15
67599;BMP280;62026;39.230;9.122;2023-05-10T01:12:41;100887.31;;;19.16
67599;BMP280;62026;39.230;9.122;2023-05-10T01:15:10;100884.91;;;19.14
67599;BMP280;62026;39.230;9.122;2023-05-10T01:17:40;100886.78;;;19.14
67599;BMP280;62026;39.230;9.122;2023-05-10T01:20:09;100887.31;;;19.11
67599;BMP280;62026;39.230;9.122;2023-05-10T01:34:06;100880.31;;;19.05
67599;BMP280;62026;39.230;9.122;2023-05-10T01:37:04;100887.28;;;19.00
67599;BMP280;62026;39.230;9.122;2023-05-10T01:39:46;100883.28;;;18.98
67599;BMP280;62026;39.230;9.122;2023-05-10T01:42:31;100885.16;;;18.97
67599;BMP280;62026;39.230;9.122;2023-05-10T01:46:05;100893.44;;;19.01
67599;BMP280;62026;39.230;9.122;2023-05-10T01:48:09;100878.69;;;18.98
67599;BMP280;62026;39.230;9.122;2023-05-10T01:50:39;100866.13;;;18.99
67599;BMP280;62026;39.230;9.122;2023-05-10T01:53:11;100868.81;;;18.99
67599;BMP280;62026;39.230;9.122;2023-05-10T01:55:51;100871.78;;;18.97
67599;BMP280;62026;39.230;9.122;2023-05-10T01:58:31;100882.19;;;18.99
67599;BMP280;62026;39.230;9.122;2023-05-10T02:01:01;100869.31;;;18.96
67599;BMP280;62026;39.230;9.122;2023-05-10T02:03:32;100870.13;;;18.96
67599;BMP280;62026;39.230;9.122;2023-05-10T02:06:00;100871.78;;;18.97
67599;BMP280;62026;39.230;9.122;2023-05-10T02:08:27;100867.22;;;18.98
67599;BMP280;62026;39.230;9.122;2023-05-10T02:10:56;100853.28;;;18.96
67599;BMP280;62026;39.230;9.122;2023-05-10T02:13:25;100847.41;;;18.99
67599;BMP280;62026;39.230;9.122;2023-05-10T02:15:54;100833.47;;;18.97
67599;BMP280;62026;39.230;9.122;2023-05-10T02:18:23;100827.59;;;18.95
67599;BMP280;62026;39.230;9.122;2023-05-10T02:20:53;100834.00;;;18.94
67599;BMP280;62026;39.230;9.122;2023-05-10T02:23:23;100833.22;;;18.93
67599;BMP280;62026;39.230;9.122;2023-05-10T02:25:51;100833.22;;;18.93
67599;BMP280;62026;39.230;9.122;2023-05-10T02:28:21;100834.00;;;18.94
67599;BMP280;62026;39.230;9.122;2023-05-10T02:30:50;100841.50;;;18.92
67599;BMP280;62026;39.230;9.122;2023-05-10T02:33:17;100836.66;;;18.94
67599;BMP280;62026;39.230;9.122;2023-05-10T02:35:46;100849.28;;;18.93
67599;BMP280;62026;39.230;9.122;2023-05-10T02:38:14;100841.50;;;18.92
67599;BMP280;62026;39.230;9.122;2023-05-10T02:40:42;100839.63;;;18.92
67599;BMP280;62026;39.230;9.122;2023-05-10T02:43:14;100840.69;;;18.91
67599;BMP280;62026;39.230;9.122;2023-05-10T02:45:43;100842.56;;;18.91
67599;BMP280;62026;39.230;9.122;2023-05-10T02:48:12;100829.72;;;18.88
67599;BMP280;62026;39.230;9.122;2023-05-10T02:50:44;100838.00;;;18.86
67599;BMP280;62026;39.230;9.122;2023-05-10T02:53:15;100838.81;;;18.87
67599;BMP280;62026;39.230;9.122;2023-05-10T02:55:51;100829.72;;;18.88
67599;BMP280;62026;39.230;9.122;2023-05-10T02:58:17;100835.59;;;18.85
67599;BMP280;62026;39.230;9.122;2023-05-10T03:00:46;100837.75;;;18.83
67599;BMP280;62026;39.230;9.122;2023-05-10T03:03:12;100846.56;;;18.83
67599;BMP280;62026;39.230;9.122;2023-05-10T03:05:38;100848.41;;;18.78
67599;BMP280;62026;39.230;9.122;2023-05-10T03:08:05;100841.19;;;18.78
67599;BMP280;62026;39.230;9.122;2023-05-10T03:10:40;100845.72;;;18.78
67599;BMP280;62026;39.230;9.122;2023-05-10T03:13:46;100842.50;;;18.76
67599;BMP280;62026;39.230;9.122;2023-05-10T03:16:24;100843.31;;;18.76
67599;BMP280;62026;39.230;9.122;2023-05-10T03:19:17;100839.84;;;18.71
67599;BMP280;62026;39.230;9.122;2023-05-10T03:21:50;100840.63;;;18.71
67599;BMP280;62026;39.230;9.122;2023-05-10T03:24:22;100839.03;;;18.70
67599;BMP280;62026;39.230;9.122;2023-05-10T03:26:51;100833.38;;;18.67
67599;BMP280;62026;39.230;9.122;2023-05-10T03:29:21;100834.19;;;18.67
67599;BMP280;62026;39.230;9.122;2023-05-10T03:31:48;100826.97;;;18.68
67599;BMP280;62026;39.230;9.122;2023-05-10T03:34:14;100825.13;;;18.68
67599;BMP280;62026;39.230;9.122;2023-05-10T03:36:41;100817.31;;;18.67
67599;BMP280;62026;39.230;9.122;2023-05-10T03:39:07;100808.25;;;18.68
67599;BMP280;62026;39.230;9.122;2023-05-10T03:41:33;100813.63;;;18.68
67599;BMP280;62026;39.230;9.122;2023-05-10T03:43:59;100811.19;;;18.66
67599;BMP280;62026;39.230;9.122;2023-05-10T03:46:25;100802.38;;;18.66
67599;BMP280;62026;39.230;9.122;2023-05-10T03:48:52;100810.38;;;18.66
67599;BMP280;62026;39.230;9.122;2023-05-10T03:51:18;100814.94;;;18.65
67599;BMP280;62026;39.230;9.122;2023-05-10T03:53:44;100819.47;;;18.64
67599;BMP280;62026;39.230;9.122;2023-05-10T03:56:10;100807.16;;;18.63
67599;BMP280;62026;39.230;9.122;2023-05-10T03:58:36;100806.38;;;18.63
67599;BMP280;62026;39.230;9.122;2023-05-10T04:01:03;100823.22;;;18.63
67599;BMP280;62026;39.230;9.122;2023-05-10T04:03:29;100813.88;;;18.61
67599;BMP280;62026;39.230;9.122;2023-05-10T04:06:00;100817.84;;;18.58
67599;BMP280;62026;39.230;9.122;2023-05-10T04:08:27;100814.13;;;18.59
67599;BMP280;62026;39.230;9.122;2023-05-10T04:10:53;100821.31;;;18.59
67599;BMP280;62026;39.230;9.122;2023-05-10T04:13:19;100815.41;;;18.57
67599;BMP280;62026;39.230;9.122;2023-05-10T04:15:45;100820.50;;;18.58
67599;BMP280;62026;39.230;9.122;2023-05-10T04:18:11;100825.06;;;18.58
67599;BMP280;62026;39.230;9.122;2023-05-10T04:20:37;100822.38;;;18.58
67599;BMP280;62026;39.230;9.122;2023-05-10T04:23:03;100827.50;;;18.59
67599;BMP280;62026;39.230;9.122;2023-05-10T04:25:29;100829.59;;;18.57
67599;BMP280;62026;39.230;9.122;2023-05-10T04:27:55;100828.78;;;18.57
67599;BMP280;62026;39.230;9.122;2023-05-10T04:30:21;100841.91;;;18.58
67599;BMP280;62026;39.230;9.122;2023-05-10T04:32:47;100839.22;;;18.58
67599;BMP280;62026;39.230;9.122;2023-05-10T04:35:13;100849.41;;;18.56
67599;BMP280;62026;39.230;9.122;2023-05-10T04:37:40;100852.06;;;18.56
67599;BMP280;62026;39.230;9.122;2023-05-10T04:40:07;100845.63;;;18.57
67599;BMP280;62026;39.230;9.122;2023-05-10T04:42:33;100846.72;;;18.56
67599;BMP280;62026;39.230;9.122;2023-05-10T04:44:59;100851.53;;;18.54
67599;BMP280;62026;39.230;9.122;2023-05-10T04:47:25;100849.91;;;18.53
67599;BMP280;62026;39.230;9.122;2023-05-10T04:49:51;100857.94;;;18.53
67599;BMP280;62026;39.230;9.122;2023-05-10T04:52:17;100870.78;;;18.56
67599;BMP280;62026;39.230;9.122;2023-05-10T04:54:43;100874.53;;;18.55
67599;BMP280;62026;39.230;9.122;2023-05-10T04:57:09;100881.47;;;18.56
67599;BMP280;62026;39.230;9.122;2023-05-10T04:59:36;100877.44;;;18.54
67599;BMP280;62026;39.230;9.122;2023-05-10T05:02:03;100876.91;;;18.57
67599;BMP280;62026;39.230;9.122;2023-05-10T05:04:30;100864.63;;;18.56
67599;BMP280;62026;39.230;9.122;2023-05-10T05:06:56;100856.88;;;18.54
67599;BMP280;62026;39.230;9.122;2023-05-10T05:09:22;100866.75;;;18.54
67599;BMP280;62026;39.230;9.122;2023-05-10T05:11:48;100877.72;;;18.57
67599;BMP280;62026;39.230;9.122;2023-05-10T05:14:14;100886.03;;;18.56
67599;BMP280;62026;39.230;9.122;2023-05-10T05:16:40;100874.22;;;18.57
67599;BMP280;62026;39.230;9.122;2023-05-10T05:19:06;100877.47;;;18.59
67599;BMP280;62026;39.230;9.122;2023-05-10T05:21:32;100871.88;;;18.60
67599;BMP280;62026;39.230;9.122;2023-05-10T05:23:58;100874.00;;;18.63
67599;BMP280;62026;39.230;9.122;2023-05-10T05:26:24;100877.56;;;18.79
67599;BMP280;62026;39.230;9.122;2023-05-10T05:28:51;100886.72;;;18.93
67599;BMP280;62026;39.230;9.122;2023-05-10T05:31:20;100883.00;;;19.05
67599;BMP280;62026;39.230;9.122;2023-05-10T05:33:46;100882.78;;;19.16
67599;BMP280;62026;39.230;9.122;2023-05-10T05:36:12;100892.41;;;19.27
67599;BMP280;62026;39.230;9.122;2023-05-10T05:38:38;100891.91;;;19.35
67599;BMP280;62026;39.230;9.122;2023-05-10T05:41:04;100895.66;;;19.45
67599;BMP280;62026;39.230;9.122;2023-05-10T05:43:30;100901.56;;;19.57
67599;BMP280;62026;39.230;9.122;2023-05-10T05:45:56;100909.31;;;19.48
67599;BMP280;62026;39.230;9.122;2023-05-10T05:48:23;100901.56;;;19.36
67599;BMP280;62026;39.230;9.122;2023-05-10T05:50:49;100902.59;;;19.30
67599;BMP280;62026;39.230;9.122;2023-05-10T05:53:16;100901.50;;;19.26
67599;BMP280;62026;39.230;9.122;2023-05-10T05:55:55;100885.44;;;19.21
67599;BMP280;62026;39.230;9.122;2023-05-10T05:58:25;100884.09;;;19.19
67599;BMP280;62026;39.230;9.122;2023-05-10T06:00:53;100872.09;;;19.31
67599;BMP280;62026;39.230;9.122;2023-05-10T06:03:19;100879.34;;;19.36
67599;BMP280;62026;39.230;9.122;2023-05-10T06:05:47;100882.31;;;19.60
67599;BMP280;62026;39.230;9.122;2023-05-10T06:08:13;100876.41;;;19.78
67599;BMP280;62026;39.230;9.122;2023-05-10T06:10:39;100890.84;;;19.97
67599;BMP280;62026;39.230;9.122;2023-05-10T06:13:05;100885.72;;;20.11
67599;BMP280;62026;39.230;9.122;2023-05-10T06:15:31;100888.38;;;20.31
67599;BMP280;62026;39.230;9.122;2023-05-10T06:17:58;100898.75;;;20.53
67599;BMP280;62026;39.230;9.122;2023-05-10T06:20:24;100896.59;;;20.65
67599;BMP280;62026;39.230;9.122;2023-05-10T06:22:50;100892.25;;;20.69
67599;BMP280;62026;39.230;9.122;2023-05-10T06:25:16;100893.97;;;20.50
67599;BMP280;62026;39.230;9.122;2023-05-10T06:27:44;100894.78;;;20.45
67599;BMP280;62026;39.230;9.122;2023-05-10T06:30:10;100901.19;;;20.49
67599;BMP280;62026;39.230;9.122;2023-05-10T06:32:39;100903.50;;;20.76
67599;BMP280;62026;39.230;9.122;2023-05-10T06:35:05;100895.38;;;20.92
67599;BMP280;62026;39.230;9.122;2023-05-10T06:37:31;100894.31;;;20.93
67599;BMP280;62026;39.230;9.122;2023-05-10T06:39:57;100888.91;;;20.98
67599;BMP280;62026;39.230;9.122;2023-05-10T06:42:23;100887.22;;;21.07
67599;BMP280;62026;39.230;9.122;2023-05-10T06:44:51;100880.69;;;21.23
67599;BMP280;62026;39.230;9.122;2023-05-10T06:47:17;100881.16;;;21.30
67599;BMP280;62026;39.230;9.122;2023-05-10T06:49:43;100868.63;;;21.20
67599;BMP280;62026;39.230;9.122;2023-05-10T06:52:09;100864.41;;;21.09
67599;BMP280;62026;39.230;9.122;2023-05-10T06:54:35;100874.81;;;21.16
67599;BMP280;62026;39.230;9.122;2023-05-10T06:57:01;100864.50;;;21.33
67599;BMP280;62026;39.230;9.122;2023-05-10T07:12:31;100868.00;;;22.15
67599;BMP280;62026;39.230;9.122;2023-05-10T07:14:57;100871.97;;;22.23
67599;BMP280;62026;39.230;9.122;2023-05-10T07:17:23;100875.84;;;22.35
67599;BMP280;62026;39.230;9.122;2023-05-10T07:19:49;100871.41;;;22.45
67599;BMP280;62026;39.230;9.122;2023-05-10T07:22:16;100875.31;;;22.76
67599;BMP280;62026;39.230;9.122;2023-05-10T07:24:42;100873.56;;;22.85
67599;BMP280;62026;39.230;9.122;2023-05-10T07:27:08;100871.97;;;22.84
67599;BMP280;62026;39.230;9.122;2023-05-10T07:29:35;100872.72;;;22.90
67599;BMP280;62026;39.230;9.122;2023-05-10T07:32:03;100875.66;;;22.51
67599;BMP280;62026;39.230;9.122;2023-05-10T07:34:29;100875.09;;;22.72
67599;BMP280;62026;39.230;9.122;2023-05-10T07:36:58;100869.28;;;22.65
67599;BMP280;62026;39.230;9.122;2023-05-10T07:39:26;100871.13;;;22.46
67599;BMP280;62026;39.230;9.122;2023-05-10T07:41:52;100861.78;;;22.44
67599;BMP280;62026;39.230;9.122;2023-05-10T07:44:18;100882.78;;;22.60
67599;BMP280;62026;39.230;9.122;2023-05-10T07:46:46;100863.75;;;22.57
67599;BMP280;62026;39.230;9.122;2023-05-10T07:49:13;100874.75;;;22.79
67599;BMP280;62026;39.230;9.122;2023-05-10T07:51:39;100872.44;;;22.86
67599;BMP280;62026;39.230;9.122;2023-05-10T07:54:05;100866.59;;;23.16
67599;BMP280;62026;39.230;9.122;2023-05-10T07:56:32;100873.38;;;23.33
67599;BMP280;62026;39.230;9.122;2023-05-10T07:59:03;100864.63;;;23.41
67599;BMP280;62026;39.230;9.122;2023-05-10T08:01:31;100868.41;;;23.40
67599;BMP280;62026;39.230;9.122;2023-05-10T08:04:01;100866.78;;;23.25
67599;BMP280;62026;39.230;9.122;2023-05-10T08:06:27;100863.28;;;23.25
67599;BMP280;62026;39.230;9.122;2023-05-10T08:08:56;100860.53;;;23.43
67599;BMP280;62026;39.230;9.122;2023-05-10T08:11:22;100861.47;;;23.66
67599;BMP280;62026;39.230;9.122;2023-05-10T08:13:50;100859.44;;;23.58
67599;BMP280;62026;39.230;9.122;2023-05-10T08:16:17;100855.97;;;23.58
67599;BMP280;62026;39.230;9.122;2023-05-10T08:18:45;100868.13;;;23.55
67599;BMP280;62026;39.230;9.122;2023-05-10T08:21:13;100862.75;;;23.82
67599;BMP280;62026;39.230;9.122;2023-05-10T08:23:39;100862.69;;;23.87
67599;BMP280;62026;39.230;9.122;2023-05-10T08:26:06;100863.28;;;23.84
67599;BMP280;62026;39.230;9.122;2023-05-10T08:28:32;100858.16;;;23.69
67599;BMP280;62026;39.230;9.122;2023-05-10T08:30:58;100851.91;;;24.01
67599;BMP280;62026;39.230;9.122;2023-05-10T08:33:24;100856.84;;;23.53
67599;BMP280;62026;39.230;9.122;2023-05-10T08:35:50;100858.41;;;23.27
67599;BMP280;62026;39.230;9.122;2023-05-10T08:38:17;100864.59;;;23.08
67599;BMP280;62026;39.230;9.122;2023-05-10T08:40:44;100860.31;;;23.40
67599;BMP280;62026;39.230;9.122;2023-05-10T08:43:12;100848.25;;;23.51
67599;BMP280;62026;39.230;9.122;2023-05-10T08:45:44;100858.56;;;23.63
67599;BMP280;62026;39.230;9.122;2023-05-10T08:48:15;100844.19;;;23.67
67599;BMP280;62026;39.230;9.122;2023-05-10T08:50:42;100844.81;;;23.64
67599;BMP280;62026;39.230;9.122;2023-05-10T08:53:14;100846.06;;;23.53
67599;BMP280;62026;39.230;9.122;2023-05-10T08:55:41;100846.91;;;23.67
67599;BMP280;62026;39.230;9.122;2023-05-10T08:58:09;100834.50;;;23.52
67599;BMP280;62026;39.230;9.122;2023-05-10T09:00:36;100843.44;;;23.34
67599;BMP280;62026;39.230;9.122;2023-05-10T09:03:05;100851.00;;;23.19
67599;BMP280;62026;39.230;9.122;2023-05-10T09:05:31;100850.59;;;23.39
67599;BMP280;62026;39.230;9.122;2023-05-10T09:07:58;100842.84;;;23.37
67599;BMP280;62026;39.230;9.122;2023-05-10T09:10:27;100843.88;;;23.55
67599;BMP280;62026;39.230;9.122;2023-05-10T09:12:56;100849.66;;;23.48
67599;BMP280;62026;39.230;9.122;2023-05-10T09:15:23;100850.28;;;23.59
67599;BMP280;62026;39.230;9.122;2023-05-10T09:17:50;100849.06;;;23.65
67599;BMP280;62026;39.230;9.122;2023-05-10T09:20:16;100850.19;;;23.32
67599;BMP280;62026;39.230;9.122;2023-05-10T09:22:46;100845.75;;;23.41
67599;BMP280;62026;39.230;9.122;2023-05-10T09:25:16;100851.94;;;23.41
67599;BMP280;62026;39.230;9.122;2023-05-10T09:27:47;100851.50;;;23.80
67599;BMP280;62026;39.230;9.122;2023-05-10T09:30:24;100853.91;;;23.95
67599;BMP280;62026;39.230;9.122;2023-05-10T09:32:51;100841.41;;;24.00
67599;BMP280;62026;39.230;9.122;2023-05-10T09:35:21;100854.31;;;24.03
67599;BMP280;62026;39.230;9.122;2023-05-10T09:37:50;100856.47;;;24.28
67599;BMP280;62026;39.230;9.122;2023-05-10T09:40:23;100851.09;;;24.14
67599;BMP280;62026;39.230;9.122;2023-05-10T09:43:07;100849.06;;;24.20
67599;BMP280;62026;39.230;9.122;2023-05-10T09:45:35;100851.47;;;24.35
67599;BMP280;62026;39.230;9.122;2023-05-10T09:48:02;100846.47;;;24.15
67599;BMP280;62026;39.230;9.122;2023-05-10T09:50:30;100844.28;;;23.62
67599;BMP280;62026;39.230;9.122;2023-05-10T09:53:01;100842.00;;;23.55
67599;BMP280;62026;39.230;9.122;2023-05-10T09:55:39;100855.59;;;23.64
67599;BMP280;62026;39.230;9.122;2023-05-10T09:58:06;100848.47;;;23.68
67599;BMP280;62026;39.230;9.122;2023-05-10T10:00:44;100850.63;;;23.71
67599;BMP280;62026;39.230;9.122;2023-05-10T10:03:19;100841.28;;;23.77
67599;BMP280;62026;39.230;9.122;2023-05-10T10:05:47;100850.06;;;23.83
67599;BMP280;62026;39.230;9.122;2023-05-10T10:08:15;100828.38;;;23.61
67599;BMP280;62026;39.230;9.122;2023-05-10T10:10:42;100832.91;;;23.65
67599;BMP280;62026;39.230;9.122;2023-05-10T10:13:10;100837.91;;;23.85
67599;BMP280;62026;39.230;9.122;2023-05-10T10:15:36;100832.91;;;23.65
67599;BMP280;62026;39.230;9.122;2023-05-10T10:18:03;100831.72;;;23.85
67599;BMP280;62026;39.230;9.122;2023-05-10T10:20:30;100830.50;;;23.77
67599;BMP280;62026;39.230;9.122;2023-05-10T10:22:56;100829.41;;;23.51
67599;BMP280;62026;39.230;9.122;2023-05-10T10:25:23;100822.31;;;23.69
67599;BMP280;62026;39.230;9.122;2023-05-10T10:35:46;100816.72;;;23.65
67599;BMP280;62026;39.230;9.122;2023-05-10T10:38:13;100816.31;;;23.44
67599;BMP280;62026;39.230;9.122;2023-05-10T10:40:39;100825.50;;;23.57
67599;BMP280;62026;39.230;9.122;2023-05-10T10:43:25;100827.31;;;23.48
67599;BMP280;62026;39.230;9.122;2023-05-10T10:46:17;100829.84;;;23.39
67599;BMP280;62026;39.230;9.122;2023-05-10T10:49:08;100818.88;;;23.36
67599;BMP280;62026;39.230;9.122;2023-05-10T10:51:38;100812.47;;;23.32
67599;BMP280;62026;39.230;9.122;2023-05-10T10:54:11;100818.28;;;23.39
67599;BMP280;62026;39.230;9.122;2023-05-10T10:56:37;100811.31;;;23.38
67599;BMP280;62026;39.230;9.122;2023-05-10T10:59:04;100808.00;;;23.27
67599;BMP280;62026;39.230;9.122;2023-05-10T11:01:34;100810.91;;;23.31
67599;BMP280;62026;39.230;9.122;2023-05-10T11:06:31;100793.75;;;23.40
67599;BMP280;62026;39.230;9.122;2023-05-10T11:08:58;100791.94;;;23.36
67599;BMP280;62026;39.230;9.122;2023-05-10T11:11:24;100785.25;;;23.61
67599;BMP280;62026;39.230;9.122;2023-05-10T11:13:51;100780.00;;;23.42
67599;BMP280;62026;39.230;9.122;2023-05-10T11:16:24;100778.56;;;23.31
67599;BMP280;62026;39.230;9.122;2023-05-10T11:21:22;100784.19;;;23.48
67599;BMP280;62026;39.230;9.122;2023-05-10T11:23:52;100778.06;;;23.42
67599;BMP280;62026;39.230;9.122;2023-05-10T11:26:23;100779.28;;;23.50
67599;BMP280;62026;39.230;9.122;2023-05-10T11:28:53;100773.13;;;23.49
67599;BMP280;62026;39.230;9.122;2023-05-10T11:31:23;100777.50;;;23.59
67599;BMP280;62026;39.230;9.122;2023-05-10T11:33:52;100783.41;;;23.75
67599;BMP280;62026;39.230;9.122;2023-05-10T11:36:27;100773.41;;;23.48
67599;BMP280;62026;39.230;9.122;2023-05-10T11:38:55;100771.19;;;23.50
67599;BMP280;62026;39.230;9.122;2023-05-10T11:41:23;100791.38;;;23.66
67599;BMP280;62026;39.230;9.122;2023-05-10T11:43:52;100800.06;;;23.49
67599;BMP280;62026;39.230;9.122;2023-05-10T11:46:23;100788.56;;;23.44
67599;BMP280;62026;39.230;9.122;2023-05-10T11:48:57;100776.19;;;23.43
67599;BMP280;62026;39.230;9.122;2023-05-10T11:51:24;100793.53;;;23.37
67599;BMP280;62026;39.230;9.122;2023-05-10T11:53:54;100786.56;;;23.36
67599;BMP280;62026;39.230;9.122;2023-05-10T11:56:21;100784.19;;;23.48
67599;BMP280;62026;39.230;9.122;2023-05-10T11:58:54;100783.97;;;23.44
67599;BMP280;62026;39.230;9.122;2023-05-10T12:01:22;100790.56;;;23.38
67599;BMP280;62026;39.230;9.122;2023-05-10T12:03:50;100786.56;;;23.36
67599;BMP280;62026;39.230;9.122;2023-05-10T12:06:20;100787.97;;;23.33
67599;BMP280;62026;39.230;9.122;2023-05-10T12:08:48;100784.19;;;23.34
67599;BMP280;62026;39.230;9.122;2023-05-10T12:11:19;100794.16;;;23.34
67599;BMP280;62026;39.230;9.122;2023-05-10T12:13:47;100783.94;;;23.31
67599;BMP280;62026;39.230;9.122;2023-05-10T12:16:18;100790.13;;;23.31
67599;BMP280;62026;39.230;9.122;2023-05-10T12:18:48;100794.16;;;23.34
67599;BMP280;62026;39.230;9.122;2023-05-10T12:21:15;100788.16;;;23.37
67599;BMP280;62026;39.230;9.122;2023-05-10T12:23:41;100794.34;;;23.37
67599;BMP280;62026;39.230;9.122;2023-05-10T12:26:11;100800.13;;;23.31
67599;BMP280;62026;39.230;9.122;2023-05-10T12:28:38;100800.22;;;23.26
67599;BMP280;62026;39.230;9.122;2023-05-10T12:31:06;100801.88;;;23.22
67599;BMP280;62026;39.230;9.122;2023-05-10T12:33:41;100805.19;;;23.19
67599;BMP280;62026;39.230;9.122;2023-05-10T12:36:13;100797.91;;;23.19
67599;BMP280;62026;39.230;9.122;2023-05-10T12:38:43;100793.31;;;23.20
67599;BMP280;62026;39.230;9.122;2023-05-10T12:41:12;100800.19;;;23.12
67599;BMP280;62026;39.230;9.122;2023-05-10T12:43:39;100791.50;;;23.15
67599;BMP280;62026;39.230;9.122;2023-05-10T12:46:12;100783.31;;;23.20
67599;BMP280;62026;39.230;9.122;2023-05-10T12:48:39;100795.50;;;23.17
67599;BMP280;62026;39.230;9.122;2023-05-10T12:51:06;100791.38;;;23.06
67599;BMP280;62026;39.230;9.122;2023-05-10T12:53:38;100788.09;;;23.09
67599;BMP280;62026;39.230;9.122;2023-05-10T12:56:05;100785.31;;;23.14
67599;BMP280;62026;39.230;9.122;2023-05-10T12:58:31;100783.28;;;23.06
67599;BMP280;62026;39.230;9.122;2023-05-10T13:00:59;100772.50;;;23.06
67599;BMP280;62026;39.230;9.122;2023-05-10T13:03:25;100788.38;;;23.08
67599;BMP280;62026;39.230;9.122;2023-05-10T13:05:51;100776.81;;;23.07
67599;BMP280;62026;39.230;9.122;2023-05-10T13:08:17;100766.03;;;23.07
67599;BMP280;62026;39.230;9.122;2023-05-10T13:10:44;100783.81;;;23.08
67599;BMP280;62026;39.230;9.122;2023-05-10T13:13:10;100781.13;;;23.08
67599;BMP280;62026;39.230;9.122;2023-05-10T13:15:36;100787.16;;;23.00
67599;BMP280;62026;39.230;9.122;2023-05-10T13:18:02;100780.28;;;22.94
67599;BMP280;62026;39.230;9.122;2023-05-10T13:20:28;100780.66;;;23.01
67599;BMP280;62026;39.230;9.122;2023-05-10T13:22:54;100776.91;;;23.02
67599;BMP280;62026;39.230;9.122;2023-05-10T13:25:20;100777.72;;;23.03
67599;BMP280;62026;39.230;9.122;2023-05-10T13:27:46;100780.03;;;23.09
67599;BMP280;62026;39.230;9.122;2023-05-10T13:30:12;100785.13;;;23.11
67599;BMP280;62026;39.230;9.122;2023-05-10T13:32:38;100776.91;;;23.02
67599;BMP280;62026;39.230;9.122;2023-05-10T13:35:05;100779.09;;;23.00
67599;BMP280;62026;39.230;9.122;2023-05-10T13:37:32;100783.91;;;23.03
67599;BMP280;62026;39.230;9.122;2023-05-10T13:40:01;100773.41;;;23.02
67599;BMP280;62026;39.230;9.122;2023-05-10T13:42:27;100766.22;;;22.97
67599;BMP280;62026;39.230;9.122;2023-05-10T13:44:54;100775.47;;;22.91
67599;BMP280;62026;39.230;9.122;2023-05-10T13:47:20;100767.31;;;22.96
67599;BMP280;62026;39.230;9.122;2023-05-10T13:49:47;100764.16;;;23.08
67599;BMP280;62026;39.230;9.122;2023-05-10T13:52:13;100767.53;;;23.13
67599;BMP280;62026;39.230;9.122;2023-05-10T13:54:39;100764.50;;;23.01
67599;BMP280;62026;39.230;9.122;2023-05-10T13:57:05;100768.47;;;22.90
67599;BMP280;62026;39.230;9.122;2023-05-10T13:59:32;100760.72;;;22.89
67599;BMP280;62026;39.230;9.122;2023-05-10T14:01:59;100763.47;;;22.84
67599;BMP280;62026;39.230;9.122;2023-05-10T14:04:25;100766.09;;;22.89
67599;BMP280;62026;39.230;9.122;2023-05-10T14:06:51;100768.19;;;22.92
67599;BMP280;62026;39.230;9.122;2023-05-10T14:09:18;100759.81;;;22.93
67599;BMP280;62026;39.230;9.122;2023-05-10T14:11:45;100764.63;;;22.96
67599;BMP280;62026;39.230;9.122;2023-05-10T14:14:12;100764.13;;;22.94
67599;BMP280;62026;39.230;9.122;2023-05-10T14:16:43;100757.28;;;22.83
67599;BMP280;62026;39.230;9.122;2023-05-10T14:19:10;100760.50;;;22.85
67599;BMP280;62026;39.230;9.122;2023-05-10T14:21:37;100757.88;;;22.80
67599;BMP280;62026;39.230;9.122;2023-05-10T14:24:04;100768.06;;;22.83
67599;BMP280;62026;39.230;9.122;2023-05-10T14:26:30;100765.16;;;22.80
67599;BMP280;62026;39.230;9.122;2023-05-10T14:28:56;100765.03;;;22.71
67599;BMP280;62026;39.230;9.122;2023-05-10T14:31:22;100758.03;;;22.70
67599;BMP280;62026;39.230;9.122;2023-05-10T14:33:50;100755.44;;;22.65
67599;BMP280;62026;39.230;9.122;2023-05-10T14:36:17;100751.16;;;22.64
67599;BMP280;62026;39.230;9.122;2023-05-10T14:38:43;100744.28;;;22.71
67599;BMP280;62026;39.230;9.122;2023-05-10T14:41:09;100750.47;;;22.72